sensor_id;sensor_type;location;lat;lon;timestamp;temperature;humidity
20698;DHT22;10508;50.956;4.640;2023-03-21T00:00:25;10.90;99.90
20698;DHT22;10508;50.956;4.640;2023-03-21T00:02:51;10.90;99.90
20698;DHT22;10508;50.956;4.640;2023-03-21T00:05:17;10.80;99.90
20698;DHT22;10508;50.956;4.640;2023-03-21T00:07:45;10.90;99.90
20698;DHT22;10508;50.956;4.640;2023-03-21T00:10:11;10.90;99.90
20698;DHT22;10508;50.956;4.640;2023-03-21T00:12:37;10.80;99.90
20698;DHT22;10508;50.956;4.640;2023-03-21T00:15:07;10.80;99.90
20698;DHT22;10508;50.956;4.640;2023-03-21T00:17:34;10.80;99.90
20698;DHT22;10508;50.956;4.640;2023-03-21T00:20:02;10.80;99.90
20698;DHT22;10508;50.956;4.640;2023-03-21T00:22:33;10.80;99.90
20698;DHT22;10508;50.956;4.640;2023-03-21T00:24:58;10.70;99.90
20698;DHT22;10508;50.956;4.640;2023-03-21T00:27:24;10.70;99.90
20698;DHT22;10508;50.956;4.640;2023-03-21T00:29:50;10.70;99.90
20698;DHT22;10508;50.956;4.640;2023-03-21T00:32:16;10.70;99.90
20698;DHT22;10508;50.956;4.640;2023-03-21T00:34:42;10.70;99.90
20698;DHT22;10508;50.956;4.640;2023-03-21T00:37:09;10.70;99.90
20698;DHT22;10508;50.956;4.640;2023-03-21T00:39:37;10.70;99.90
20698;DHT22;10508;50.956;4.640;2023-03-21T00:42:03;10.60;99.90
20698;DHT22;10508;50.956;4.640;2023-03-21T00:44:29;10.60;99.90
20698;DHT22;10508;50.956;4.640;2023-03-21T00:47:04;10.60;99.90
20698;DHT22;10508;50.956;4.640;2023-03-21T00:49:30;10.60;99.90
20698;DHT22;10508;50.956;4.640;2023-03-21T00:51:59;10.50;99.90
20698;DHT22;10508;50.956;4.640;2023-03-21T00:54:25;10.50;99.90
20698;DHT22;10508;50.956;4.640;2023-03-21T00:56:52;10.50;99.90
20698;DHT22;10508;50.956;4.640;2023-03-21T00:59:26;10.60;99.90
20698;DHT22;10508;50.956;4.640;2023-03-21T01:01:52;10.50;99.90
20698;DHT22;10508;50.956;4.640;2023-03-21T01:04:18;10.50;99.90
20698;DHT22;10508;50.956;4.640;2023-03-21T01:06:46;10.50;99.90
20698;DHT22;10508;50.956;4.640;2023-03-21T01:09:14;10.50;99.90
20698;DHT22;10508;50.956;4.640;2023-03-21T01:11:41;10.60;99.90
20698;DHT22;10508;50.956;4.640;2023-03-21T01:14:08;10.50;99.90
20698;DHT22;10508;50.956;4.640;2023-03-21T01:16:34;10.50;99.90
20698;DHT22;10508;50.956;4.640;2023-03-21T01:19:01;10.50;99.90
20698;DHT22;10508;50.956;4.640;2023-03-21T01:21:27;10.50;99.90
20698;DHT22;10508;50.956;4.640;2023-03-21T01:23:53;10.70;99.90
20698;DHT22;10508;50.956;4.640;2023-03-21T01:26:19;10.60;99.90
20698;DHT22;10508;50.956;4.640;2023-03-21T01:28:45;10.60;99.90
20698;DHT22;10508;50.956;4.640;2023-03-21T01:31:12;10.60;99.90
20698;DHT22;10508;50.956;4.640;2023-03-21T01:33:39;10.70;99.90
20698;DHT22;10508;50.956;4.640;2023-03-21T01:36:05;10.80;99.90
20698;DHT22;10508;50.956;4.640;2023-03-21T01:38:31;10.70;99.90
20698;DHT22;10508;50.956;4.640;2023-03-21T01:41:00;10.60;99.90
20698;DHT22;10508;50.956;4.640;2023-03-21T01:43:34;10.60;99.90
20698;DHT22;10508;50.956;4.640;2023-03-21T01:48:39;10.60;99.90
20698;DHT22;10508;50.956;4.640;2023-03-21T01:51:08;10.60;99.90
20698;DHT22;10508;50.956;4.640;2023-03-21T01:53:37;10.50;99.90
20698;DHT22;10508;50.956;4.640;2023-03-21T01:58:51;10.60;99.90
20698;DHT22;10508;50.956;4.640;2023-03-21T02:01:20;10.60;99.90
20698;DHT22;10508;50.956;4.640;2023-03-21T02:03:48;10.60;99.90
20698;DHT22;10508;50.956;4.640;2023-03-21T02:06:31;10.60;99.90
20698;DHT22;10508;50.956;4.640;2023-03-21T02:09:06;10.60;99.90
20698;DHT22;10508;50.956;4.640;2023-03-21T02:11:33;10.60;99.90
20698;DHT22;10508;50.956;4.640;2023-03-21T02:13:59;10.60;99.90
20698;DHT22;10508;50.956;4.640;2023-03-21T02:25:09;10.80;99.90
20698;DHT22;10508;50.956;4.640;2023-03-21T02:36:25;10.70;99.90
20698;DHT22;10508;50.956;4.640;2023-03-21T02:47:18;10.70;99.90
20698;DHT22;10508;50.956;4.640;2023-03-21T02:52:17;10.80;99.90
20698;DHT22;10508;50.956;4.640;2023-03-21T02:54:46;10.80;99.90
20698;DHT22;10508;50.956;4.640;2023-03-21T02:57:13;10.80;99.90
20698;DHT22;10508;50.956;4.640;2023-03-21T02:59:41;10.70;99.90
20698;DHT22;10508;50.956;4.640;2023-03-21T03:02:07;10.70;99.90
20698;DHT22;10508;50.956;4.640;2023-03-21T03:04:33;10.70;99.90
20698;DHT22;10508;50.956;4.640;2023-03-21T03:10:09;10.60;99.90
20698;DHT22;10508;50.956;4.640;2023-03-21T03:18:12;10.80;99.90
20698;DHT22;10508;50.956;4.640;2023-03-21T03:20:52;10.80;99.90
20698;DHT22;10508;50.956;4.640;2023-03-21T03:28:29;10.80;99.90
20698;DHT22;10508;50.956;4.640;2023-03-21T03:30:57;10.80;99.90
20698;DHT22;10508;50.956;4.640;2023-03-21T03:33:24;10.90;99.90
20698;DHT22;10508;50.956;4.640;2023-03-21T03:35:52;10.90;99.90
20698;DHT22;10508;50.956;4.640;2023-03-21T03:38:21;10.80;99.90
20698;DHT22;10508;50.956;4.640;2023-03-21T03:41:01;10.80;99.90
20698;DHT22;10508;50.956;4.640;2023-03-21T03:43:39;10.70;99.90
20698;DHT22;10508;50.956;4.640;2023-03-21T03:46:16;10.80;99.90
20698;DHT22;10508;50.956;4.640;2023-03-21T03:48:50;10.80;99.90
20698;DHT22;10508;50.956;4.640;2023-03-21T03:51:42;10.90;99.90
20698;DHT22;10508;50.956;4.640;2023-03-21T03:54:12;10.80;99.90
20698;DHT22;10508;50.956;4.640;2023-03-21T03:56:39;10.90;99.90
20698;DHT22;10508;50.956;4.640;2023-03-21T03:59:05;10.90;99.90
20698;DHT22;10508;50.956;4.640;2023-03-21T04:01:33;10.80;99.90
20698;DHT22;10508;50.956;4.640;2023-03-21T04:03:59;10.90;99.90
20698;DHT22;10508;50.956;4.640;2023-03-21T04:06:26;10.90;99.90
20698;DHT22;10508;50.956;4.640;2023-03-21T04:08:54;10.90;99.90
20698;DHT22;10508;50.956;4.640;2023-03-21T04:11:21;10.90;99.90
20698;DHT22;10508;50.956;4.640;2023-03-21T04:13:47;11.00;99.90
20698;DHT22;10508;50.956;4.640;2023-03-21T04:16:13;11.00;99.90
20698;DHT22;10508;50.956;4.640;2023-03-21T04:18:40;11.00;99.90
20698;DHT22;10508;50.956;4.640;2023-03-21T04:21:10;11.00;99.90
20698;DHT22;10508;50.956;4.640;2023-03-21T04:23:37;10.90;99.90
20698;DHT22;10508;50.956;4.640;2023-03-21T04:26:04;10.90;99.90
20698;DHT22;10508;50.956;4.640;2023-03-21T04:28:30;11.00;99.90
20698;DHT22;10508;50.956;4.640;2023-03-21T04:30:56;11.00;99.90
20698;DHT22;10508;50.956;4.640;2023-03-21T04:33:22;11.00;99.90
20698;DHT22;10508;50.956;4.640;2023-03-21T04:35:51;11.00;99.90
20698;DHT22;10508;50.956;4.640;2023-03-21T04:38:29;10.90;99.90
20698;DHT22;10508;50.956;4.640;2023-03-21T04:41:13;10.90;99.90
20698;DHT22;10508;50.956;4.640;2023-03-21T04:43:38;11.00;99.90
20698;DHT22;10508;50.956;4.640;2023-03-21T04:46:04;11.00;99.90
20698;DHT22;10508;50.956;4.640;2023-03-21T04:48:30;11.00;99.90
20698;DHT22;10508;50.956;4.640;2023-03-21T04:50:56;11.00;99.90
20698;DHT22;10508;50.956;4.640;2023-03-21T04:53:21;11.40;99.90
20698;DHT22;10508;50.956;4.640;2023-03-21T04:55:47;11.00;99.90
20698;DHT22;10508;50.956;4.640;2023-03-21T04:58:13;11.00;99.90
20698;DHT22;10508;50.956;4.640;2023-03-21T05:00:38;11.00;99.90
20698;DHT22;10508;50.956;4.640;2023-03-21T05:03:05;11.00;99.90
20698;DHT22;10508;50.956;4.640;2023-03-21T05:05:37;11.00;99.90
20698;DHT22;10508;50.956;4.640;2023-03-21T05:08:04;11.00;99.90
20698;DHT22;10508;50.956;4.640;2023-03-21T05:10:30;11.00;99.90
20698;DHT22;10508;50.956;4.640;2023-03-21T05:12:56;11.00;99.90
20698;DHT22;10508;50.956;4.640;2023-03-21T05:15:21;10.90;99.90
20698;DHT22;10508;50.956;4.640;2023-03-21T05:17:47;11.00;99.90
20698;DHT22;10508;50.956;4.640;2023-03-21T05:20:13;10.90;99.90
20698;DHT22;10508;50.956;4.640;2023-03-21T05:22:42;10.90;99.90
20698;DHT22;10508;50.956;4.640;2023-03-21T05:25:11;11.00;99.90
20698;DHT22;10508;50.956;4.640;2023-03-21T05:27:38;11.00;99.90
20698;DHT22;10508;50.956;4.640;2023-03-21T05:30:15;11.00;99.90
20698;DHT22;10508;50.956;4.640;2023-03-21T05:32:41;11.00;99.90
20698;DHT22;10508;50.956;4.640;2023-03-21T05:35:07;11.00;99.90
20698;DHT22;10508;50.956;4.640;2023-03-21T05:37:34;11.00;99.90
20698;DHT22;10508;50.956;4.640;2023-03-21T05:40:00;11.00;99.90
20698;DHT22;10508;50.956;4.640;2023-03-21T05:42:26;11.00;99.90
20698;DHT22;10508;50.956;4.640;2023-03-21T05:44:51;11.00;99.90
20698;DHT22;10508;50.956;4.640;2023-03-21T05:47:17;11.00;99.90
20698;DHT22;10508;50.956;4.640;2023-03-21T05:49:43;11.00;99.90
20698;DHT22;10508;50.956;4.640;2023-03-21T05:52:10;11.00;99.90
20698;DHT22;10508;50.956;4.640;2023-03-21T05:54:36;11.00;99.90
20698;DHT22;10508;50.956;4.640;2023-03-21T05:57:03;11.00;99.90
20698;DHT22;10508;50.956;4.640;2023-03-21T05:59:29;11.00;99.90
20698;DHT22;10508;50.956;4.640;2023-03-21T06:01:54;11.10;99.90
20698;DHT22;10508;50.956;4.640;2023-03-21T06:04:20;11.10;99.90
20698;DHT22;10508;50.956;4.640;2023-03-21T06:06:46;11.10;99.90
20698;DHT22;10508;50.956;4.640;2023-03-21T06:09:11;11.10;99.90
20698;DHT22;10508;50.956;4.640;2023-03-21T06:11:40;11.10;99.90
20698;DHT22;10508;50.956;4.640;2023-03-21T06:14:08;11.10;99.90
20698;DHT22;10508;50.956;4.640;2023-03-21T06:16:34;11.10;99.90
20698;DHT22;10508;50.956;4.640;2023-03-21T06:19:00;11.10;99.90
20698;DHT22;10508;50.956;4.640;2023-03-21T06:21:25;11.00;99.90
20698;DHT22;10508;50.956;4.640;2023-03-21T06:23:51;11.00;99.90
20698;DHT22;10508;50.956;4.640;2023-03-21T06:26:17;11.00;99.90
20698;DHT22;10508;50.956;4.640;2023-03-21T06:28:51;11.00;99.90
20698;DHT22;10508;50.956;4.640;2023-03-21T06:31:17;11.00;99.90
20698;DHT22;10508;50.956;4.640;2023-03-21T06:33:43;11.00;99.90
20698;DHT22;10508;50.956;4.640;2023-03-21T06:36:09;10.90;99.90
20698;DHT22;10508;50.956;4.640;2023-03-21T06:38:35;10.80;99.90
20698;DHT22;10508;50.956;4.640;2023-03-21T06:41:05;10.80;99.90
20698;DHT22;10508;50.956;4.640;2023-03-21T06:43:32;10.80;99.90
20698;DHT22;10508;50.956;4.640;2023-03-21T06:45:59;10.80;99.90
20698;DHT22;10508;50.956;4.640;2023-03-21T06:48:25;10.80;99.90
20698;DHT22;10508;50.956;4.640;2023-03-21T06:50:52;10.80;99.90
20698;DHT22;10508;50.956;4.640;2023-03-21T06:53:18;10.80;99.90
20698;DHT22;10508;50.956;4.640;2023-03-21T06:55:49;10.80;99.90
20698;DHT22;10508;50.956;4.640;2023-03-21T06:58:15;10.70;99.90
20698;DHT22;10508;50.956;4.640;2023-03-21T07:00:40;10.70;99.90
20698;DHT22;10508;50.956;4.640;2023-03-21T07:03:06;10.70;99.90
20698;DHT22;10508;50.956;4.640;2023-03-21T07:05:34;10.80;99.90
20698;DHT22;10508;50.956;4.640;2023-03-21T07:08:00;10.80;99.90
20698;DHT22;10508;50.956;4.640;2023-03-21T07:10:26;10.90;99.90
20698;DHT22;10508;50.956;4.640;2023-03-21T07:12:52;10.90;99.90
20698;DHT22;10508;50.956;4.640;2023-03-21T07:15:17;10.80;99.90
20698;DHT22;10508;50.956;4.640;2023-03-21T07:17:43;10.90;99.90
20698;DHT22;10508;50.956;4.640;2023-03-21T07:20:09;10.90;99.90
20698;DHT22;10508;50.956;4.640;2023-03-21T07:22:37;10.90;99.90
20698;DHT22;10508;50.956;4.640;2023-03-21T07:25:03;10.90;99.90
20698;DHT22;10508;50.956;4.640;2023-03-21T07:27:29;10.80;99.90
20698;DHT22;10508;50.956;4.640;2023-03-21T07:29:55;10.80;99.90
20698;DHT22;10508;50.956;4.640;2023-03-21T07:32:21;10.90;99.90
20698;DHT22;10508;50.956;4.640;2023-03-21T07:34:46;10.90;99.90
20698;DHT22;10508;50.956;4.640;2023-03-21T07:37:12;11.00;99.90
20698;DHT22;10508;50.956;4.640;2023-03-21T07:39:38;11.00;99.90
20698;DHT22;10508;50.956;4.640;2023-03-21T07:42:03;11.00;99.90
20698;DHT22;10508;50.956;4.640;2023-03-21T07:44:29;10.90;99.90
20698;DHT22;10508;50.956;4.640;2023-03-21T07:46:56;11.00;99.90
20698;DHT22;10508;50.956;4.640;2023-03-21T07:49:22;10.90;99.90
20698;DHT22;10508;50.956;4.640;2023-03-21T07:51:47;10.90;99.90
20698;DHT22;10508;50.956;4.640;2023-03-21T07:54:13;11.00;99.90
20698;DHT22;10508;50.956;4.640;2023-03-21T07:56:39;11.10;99.90
20698;DHT22;10508;50.956;4.640;2023-03-21T07:59:04;11.10;99.90
20698;DHT22;10508;50.956;4.640;2023-03-21T08:01:30;11.20;99.90
20698;DHT22;10508;50.956;4.640;2023-03-21T08:03:56;11.20;99.90
20698;DHT22;10508;50.956;4.640;2023-03-21T08:06:26;11.20;99.90
20698;DHT22;10508;50.956;4.640;2023-03-21T08:08:52;11.30;99.90
20698;DHT22;10508;50.956;4.640;2023-03-21T08:11:18;11.30;99.90
20698;DHT22;10508;50.956;4.640;2023-03-21T08:13:45;11.30;99.90
20698;DHT22;10508;50.956;4.640;2023-03-21T08:16:11;11.30;99.90
20698;DHT22;10508;50.956;4.640;2023-03-21T08:18:37;11.40;99.90
20698;DHT22;10508;50.956;4.640;2023-03-21T08:21:03;11.20;99.90
20698;DHT22;10508;50.956;4.640;2023-03-21T08:23:28;11.30;99.90
20698;DHT22;10508;50.956;4.640;2023-03-21T08:25:54;11.10;99.90
20698;DHT22;10508;50.956;4.640;2023-03-21T08:28:21;11.20;99.90
20698;DHT22;10508;50.956;4.640;2023-03-21T08:30:48;11.30;99.90
20698;DHT22;10508;50.956;4.640;2023-03-21T08:33:14;11.30;99.90
20698;DHT22;10508;50.956;4.640;2023-03-21T08:35:39;11.30;99.90
20698;DHT22;10508;50.956;4.640;2023-03-21T08:38:06;11.30;99.90
20698;DHT22;10508;50.956;4.640;2023-03-21T08:40:32;11.30;99.90
20698;DHT22;10508;50.956;4.640;2023-03-21T08:42:58;11.30;99.90
20698;DHT22;10508;50.956;4.640;2023-03-21T08:45:24;11.20;99.90
20698;DHT22;10508;50.956;4.640;2023-03-21T08:47:51;11.30;99.90
20698;DHT22;10508;50.956;4.640;2023-03-21T08:50:20;11.40;99.90
20698;DHT22;10508;50.956;4.640;2023-03-21T08:52:46;11.50;99.90
20698;DHT22;10508;50.956;4.640;2023-03-21T08:55:13;11.50;99.90
20698;DHT22;10508;50.956;4.640;2023-03-21T08:57:40;11.50;99.90
20698;DHT22;10508;50.956;4.640;2023-03-21T09:00:07;11.50;99.90
20698;DHT22;10508;50.956;4.640;2023-03-21T09:02:40;11.50;99.90
20698;DHT22;10508;50.956;4.640;2023-03-21T09:05:07;11.60;99.90
20698;DHT22;10508;50.956;4.640;2023-03-21T09:07:34;11.60;99.90
20698;DHT22;10508;50.956;4.640;2023-03-21T09:10:05;11.60;99.90
20698;DHT22;10508;50.956;4.640;2023-03-21T09:12:33;11.60;99.90
20698;DHT22;10508;50.956;4.640;2023-03-21T09:14:58;11.70;99.90
20698;DHT22;10508;50.956;4.640;2023-03-21T09:17:27;11.80;99.90
20698;DHT22;10508;50.956;4.640;2023-03-21T09:19:53;11.80;99.90
20698;DHT22;10508;50.956;4.640;2023-03-21T09:22:19;11.90;99.90
20698;DHT22;10508;50.956;4.640;2023-03-21T09:24:46;12.00;99.90
20698;DHT22;10508;50.956;4.640;2023-03-21T09:27:13;12.10;99.90
20698;DHT22;10508;50.956;4.640;2023-03-21T09:29:40;12.10;99.90
20698;DHT22;10508;50.956;4.640;2023-03-21T09:32:09;12.20;99.90
20698;DHT22;10508;50.956;4.640;2023-03-21T09:34:35;12.20;99.90
20698;DHT22;10508;50.956;4.640;2023-03-21T09:37:06;12.20;99.90
20698;DHT22;10508;50.956;4.640;2023-03-21T09:39:36;12.30;99.90
20698;DHT22;10508;50.956;4.640;2023-03-21T09:42:09;12.30;99.90
20698;DHT22;10508;50.956;4.640;2023-03-21T09:47:48;12.30;99.90
20698;DHT22;10508;50.956;4.640;2023-03-21T09:50:25;12.30;99.90
20698;DHT22;10508;50.956;4.640;2023-03-21T09:55:34;12.30;99.90
20698;DHT22;10508;50.956;4.640;2023-03-21T09:58:24;12.40;99.90
20698;DHT22;10508;50.956;4.640;2023-03-21T10:03:28;12.40;99.90
20698;DHT22;10508;50.956;4.640;2023-03-21T10:05:55;12.50;99.90
20698;DHT22;10508;50.956;4.640;2023-03-21T10:08:34;12.50;99.90
20698;DHT22;10508;50.956;4.640;2023-03-21T10:11:22;12.60;99.90
20698;DHT22;10508;50.956;4.640;2023-03-21T10:13:53;12.70;99.90
20698;DHT22;10508;50.956;4.640;2023-03-21T10:16:26;12.80;99.90
20698;DHT22;10508;50.956;4.640;2023-03-21T10:18:53;12.90;99.90
20698;DHT22;10508;50.956;4.640;2023-03-21T10:21:22;12.90;99.90
20698;DHT22;10508;50.956;4.640;2023-03-21T10:23:49;12.90;99.90
20698;DHT22;10508;50.956;4.640;2023-03-21T10:26:18;13.00;99.90
20698;DHT22;10508;50.956;4.640;2023-03-21T10:28:46;13.00;99.90
20698;DHT22;10508;50.956;4.640;2023-03-21T10:31:18;13.00;99.90
20698;DHT22;10508;50.956;4.640;2023-03-21T10:33:47;13.00;99.90
20698;DHT22;10508;50.956;4.640;2023-03-21T10:36:21;13.00;99.90
20698;DHT22;10508;50.956;4.640;2023-03-21T10:38:54;13.00;99.90
20698;DHT22;10508;50.956;4.640;2023-03-21T10:41:20;13.10;99.90
20698;DHT22;10508;50.956;4.640;2023-03-21T10:43:47;13.20;99.90
20698;DHT22;10508;50.956;4.640;2023-03-21T10:46:28;13.20;99.90
20698;DHT22;10508;50.956;4.640;2023-03-21T10:48:53;13.20;99.90
20698;DHT22;10508;50.956;4.640;2023-03-21T10:51:31;13.10;99.90
20698;DHT22;10508;50.956;4.640;2023-03-21T10:54:19;13.10;99.90
20698;DHT22;10508;50.956;4.640;2023-03-21T10:56:56;13.20;99.90
20698;DHT22;10508;50.956;4.640;2023-03-21T10:59:23;13.40;99.90
20698;DHT22;10508;50.956;4.640;2023-03-21T11:01:51;13.60;99.90
20698;DHT22;10508;50.956;4.640;2023-03-21T11:04:23;13.70;99.90
20698;DHT22;10508;50.956;4.640;2023-03-21T11:06:56;13.80;99.90
20698;DHT22;10508;50.956;4.640;2023-03-21T11:09:24;14.10;99.90
20698;DHT22;10508;50.956;4.640;2023-03-21T11:12:03;14.50;99.90
20698;DHT22;10508;50.956;4.640;2023-03-21T11:17:17;14.90;99.90
20698;DHT22;10508;50.956;4.640;2023-03-21T11:20:07;15.10;99.90
20698;DHT22;10508;50.956;4.640;2023-03-21T11:22:41;15.20;99.90
20698;DHT22;10508;50.956;4.640;2023-03-21T11:25:13;15.20;99.90
20698;DHT22;10508;50.956;4.640;2023-03-21T11:27:50;15.20;99.90
20698;DHT22;10508;50.956;4.640;2023-03-21T11:30:21;15.10;99.90
20698;DHT22;10508;50.956;4.640;2023-03-21T11:32:55;15.00;99.90
20698;DHT22;10508;50.956;4.640;2023-03-21T11:35:24;15.00;99.90
20698;DHT22;10508;50.956;4.640;2023-03-21T11:37:53;15.60;99.90
20698;DHT22;10508;50.956;4.640;2023-03-21T11:40:29;15.80;99.90
20698;DHT22;10508;50.956;4.640;2023-03-21T11:42:57;16.40;99.90
20698;DHT22;10508;50.956;4.640;2023-03-21T11:45:25;16.70;99.90
20698;DHT22;10508;50.956;4.640;2023-03-21T11:47:54;16.50;99.90
20698;DHT22;10508;50.956;4.640;2023-03-21T11:50:40;16.40;99.90
20698;DHT22;10508;50.956;4.640;2023-03-21T12:06:37;16.70;99.90
20698;DHT22;10508;50.956;4.640;2023-03-21T12:20:20;18.20;99.50
20698;DHT22;10508;50.956;4.640;2023-03-21T12:23:15;17.90;98.40
20698;DHT22;10508;50.956;4.640;2023-03-21T12:25:52;18.00;99.10
20698;DHT22;10508;50.956;4.640;2023-03-21T12:28:48;18.20;98.90
20698;DHT22;10508;50.956;4.640;2023-03-21T12:31:51;18.00;98.50
20698;DHT22;10508;50.956;4.640;2023-03-21T12:34:39;17.80;98.30
20698;DHT22;10508;50.956;4.640;2023-03-21T12:37:31;17.50;98.40
20698;DHT22;10508;50.956;4.640;2023-03-21T12:40:08;17.50;99.30
20698;DHT22;10508;50.956;4.640;2023-03-21T12:45:31;16.80;99.10
20698;DHT22;10508;50.956;4.640;2023-03-21T12:48:14;16.40;99.40
20698;DHT22;10508;50.956;4.640;2023-03-21T12:50:43;16.30;99.90
20698;DHT22;10508;50.956;4.640;2023-03-21T12:55:56;16.20;99.90
20698;DHT22;10508;50.956;4.640;2023-03-21T12:58:25;16.30;99.90
20698;DHT22;10508;50.956;4.640;2023-03-21T13:00:58;16.40;99.90
20698;DHT22;10508;50.956;4.640;2023-03-21T13:03:36;16.40;99.90
20698;DHT22;10508;50.956;4.640;2023-03-21T13:06:09;16.30;99.90
20698;DHT22;10508;50.956;4.640;2023-03-21T13:11:39;16.10;99.90
20698;DHT22;10508;50.956;4.640;2023-03-21T13:14:11;16.20;99.90
20698;DHT22;10508;50.956;4.640;2023-03-21T13:17:04;16.30;99.90
20698;DHT22;10508;50.956;4.640;2023-03-21T13:19:45;16.30;99.90
20698;DHT22;10508;50.956;4.640;2023-03-21T13:22:27;16.40;99.90
20698;DHT22;10508;50.956;4.640;2023-03-21T13:25:02;16.50;99.90
20698;DHT22;10508;50.956;4.640;2023-03-21T13:27:36;16.50;99.90
20698;DHT22;10508;50.956;4.640;2023-03-21T13:30:26;16.50;99.90
20698;DHT22;10508;50.956;4.640;2023-03-21T13:33:11;16.40;99.90
20698;DHT22;10508;50.956;4.640;2023-03-21T13:35:42;16.30;99.90
20698;DHT22;10508;50.956;4.640;2023-03-21T13:38:28;16.30;99.90
20698;DHT22;10508;50.956;4.640;2023-03-21T13:41:12;16.30;99.90
20698;DHT22;10508;50.956;4.640;2023-03-21T13:43:50;16.20;99.90
20698;DHT22;10508;50.956;4.640;2023-03-21T13:52:02;16.20;99.90
20698;DHT22;10508;50.956;4.640;2023-03-21T14:00:18;16.20;99.90
20698;DHT22;10508;50.956;4.640;2023-03-21T14:03:05;16.20;99.90
20698;DHT22;10508;50.956;4.640;2023-03-21T14:05:32;16.10;99.90
20698;DHT22;10508;50.956;4.640;2023-03-21T14:08:04;16.00;99.90
20698;DHT22;10508;50.956;4.640;2023-03-21T14:10:46;16.00;99.90
20698;DHT22;10508;50.956;4.640;2023-03-21T14:13:19;16.00;99.90
20698;DHT22;10508;50.956;4.640;2023-03-21T14:15:52;16.00;99.90
20698;DHT22;10508;50.956;4.640;2023-03-21T14:18:21;16.00;99.90
20698;DHT22;10508;50.956;4.640;2023-03-21T14:20:55;16.10;99.90
20698;DHT22;10508;50.956;4.640;2023-03-21T14:23:21;16.10;99.90
20698;DHT22;10508;50.956;4.640;2023-03-21T14:25:47;16.00;99.90
20698;DHT22;10508;50.956;4.640;2023-03-21T14:28:28;16.10;99.90
20698;DHT22;10508;50.956;4.640;2023-03-21T14:30:59;16.10;99.90
20698;DHT22;10508;50.956;4.640;2023-03-21T14:33:32;16.10;99.90
20698;DHT22;10508;50.956;4.640;2023-03-21T14:36:06;16.00;99.90
20698;DHT22;10508;50.956;4.640;2023-03-21T14:38:37;16.00;99.90
20698;DHT22;10508;50.956;4.640;2023-03-21T14:41:04;15.90;99.90
20698;DHT22;10508;50.956;4.640;2023-03-21T14:43:30;15.80;99.90
20698;DHT22;10508;50.956;4.640;2023-03-21T14:45:59;15.80;99.90
20698;DHT22;10508;50.956;4.640;2023-03-21T14:48:52;15.70;99.90
20698;DHT22;10508;50.956;4.640;2023-03-21T14:51:17;15.70;99.90
20698;DHT22;10508;50.956;4.640;2023-03-21T14:53:44;15.60;99.90
20698;DHT22;10508;50.956;4.640;2023-03-21T14:56:22;15.50;99.90
20698;DHT22;10508;50.956;4.640;2023-03-21T14:58:49;15.50;99.90
20698;DHT22;10508;50.956;4.640;2023-03-21T15:01:28;15.40;99.90
20698;DHT22;10508;50.956;4.640;2023-03-21T15:03:54;15.40;99.90
20698;DHT22;10508;50.956;4.640;2023-03-21T15:06:21;15.40;99.90
20698;DHT22;10508;50.956;4.640;2023-03-21T15:08:55;15.40;99.90
20698;DHT22;10508;50.956;4.640;2023-03-21T15:13:54;15.50;99.90
20698;DHT22;10508;50.956;4.640;2023-03-21T15:16:21;15.50;99.90
20698;DHT22;10508;50.956;4.640;2023-03-21T15:18:47;15.50;99.90
20698;DHT22;10508;50.956;4.640;2023-03-21T15:21:22;15.30;99.90
20698;DHT22;10508;50.956;4.640;2023-03-21T15:23:52;15.20;99.90
20698;DHT22;10508;50.956;4.640;2023-03-21T15:26:21;15.20;99.90
20698;DHT22;10508;50.956;4.640;2023-03-21T15:28:55;15.20;99.90
20698;DHT22;10508;50.956;4.640;2023-03-21T15:31:23;15.20;99.90
20698;DHT22;10508;50.956;4.640;2023-03-21T15:33:52;15.20;99.90
20698;DHT22;10508;50.956;4.640;2023-03-21T15:36:26;15.20;99.90
20698;DHT22;10508;50.956;4.640;2023-03-21T15:38:53;15.20;99.90
20698;DHT22;10508;50.956;4.640;2023-03-21T15:43:46;15.30;99.90
20698;DHT22;10508;50.956;4.640;2023-03-21T15:46:17;15.20;99.90
20698;DHT22;10508;50.956;4.640;2023-03-21T15:48:43;15.20;99.90
20698;DHT22;10508;50.956;4.640;2023-03-21T15:51:22;15.10;99.90
20698;DHT22;10508;50.956;4.640;2023-03-21T15:53:51;15.10;99.90
20698;DHT22;10508;50.956;4.640;2023-03-21T15:56:21;15.10;99.90
20698;DHT22;10508;50.956;4.640;2023-03-21T15:58:48;15.00;99.90
20698;DHT22;10508;50.956;4.640;2023-03-21T16:01:17;15.00;99.90
20698;DHT22;10508;50.956;4.640;2023-03-21T16:03:47;14.90;99.90
20698;DHT22;10508;50.956;4.640;2023-03-21T16:06:21;14.80;99.90
20698;DHT22;10508;50.956;4.640;2023-03-21T16:08:52;14.80;99.90
20698;DHT22;10508;50.956;4.640;2023-03-21T16:13:50;14.60;99.90
20698;DHT22;10508;50.956;4.640;2023-03-21T16:16:27;14.50;99.90
20698;DHT22;10508;50.956;4.640;2023-03-21T16:18:54;14.60;99.90
20698;DHT22;10508;50.956;4.640;2023-03-21T16:21:23;14.60;99.90
20698;DHT22;10508;50.956;4.640;2023-03-21T16:23:49;14.50;99.90
20698;DHT22;10508;50.956;4.640;2023-03-21T16:26:21;14.50;99.90
20698;DHT22;10508;50.956;4.640;2023-03-21T16:28:47;14.50;99.90
20698;DHT22;10508;50.956;4.640;2023-03-21T16:31:16;14.40;99.90
20698;DHT22;10508;50.956;4.640;2023-03-21T16:33:43;14.40;99.90
20698;DHT22;10508;50.956;4.640;2023-03-21T16:36:30;14.30;99.90
20698;DHT22;10508;50.956;4.640;2023-03-21T16:38:57;14.30;99.90
20698;DHT22;10508;50.956;4.640;2023-03-21T16:41:24;14.30;99.90
20698;DHT22;10508;50.956;4.640;2023-03-21T16:43:50;14.30;99.90
20698;DHT22;10508;50.956;4.640;2023-03-21T16:46:24;14.30;99.90
20698;DHT22;10508;50.956;4.640;2023-03-21T16:48:55;14.30;99.90
20698;DHT22;10508;50.956;4.640;2023-03-21T16:51:35;14.30;99.90
20698;DHT22;10508;50.956;4.640;2023-03-21T16:54:01;14.30;99.90
20698;DHT22;10508;50.956;4.640;2023-03-21T16:56:36;14.20;99.90
20698;DHT22;10508;50.956;4.640;2023-03-21T16:59:03;14.20;99.90
20698;DHT22;10508;50.956;4.640;2023-03-21T17:01:31;14.20;99.90
20698;DHT22;10508;50.956;4.640;2023-03-21T17:03:57;14.10;99.90
20698;DHT22;10508;50.956;4.640;2023-03-21T17:06:24;14.10;99.90
20698;DHT22;10508;50.956;4.640;2023-03-21T17:08:52;14.00;99.90
20698;DHT22;10508;50.956;4.640;2023-03-21T17:11:20;14.10;99.90
20698;DHT22;10508;50.956;4.640;2023-03-21T17:13:47;14.10;99.90
20698;DHT22;10508;50.956;4.640;2023-03-21T17:16:16;14.10;99.90
20698;DHT22;10508;50.956;4.640;2023-03-21T17:18:42;14.20;99.90
20698;DHT22;10508;50.956;4.640;2023-03-21T17:21:20;14.10;99.90
20698;DHT22;10508;50.956;4.640;2023-03-21T17:23:46;14.00;99.90
20698;DHT22;10508;50.956;4.640;2023-03-21T17:26:13;13.90;99.90
20698;DHT22;10508;50.956;4.640;2023-03-21T17:28:40;13.80;99.90
20698;DHT22;10508;50.956;4.640;2023-03-21T17:31:21;13.80;99.90
20698;DHT22;10508;50.956;4.640;2023-03-21T17:33:47;13.70;99.90
20698;DHT22;10508;50.956;4.640;2023-03-21T17:36:19;13.70;99.90